Time;durP1;ratioP1;P1;durP2;ratioP2;P2;SDS_P1;SDS_P2;PMS_P1;PMS_P2;Temp;Humidity;BMP_temperature;BMP_pressure;BME280_temperature;BME280_humidity;BME280_pressure;Samples;Min_cycle;Max_cycle;Signal;HPM_P1;HPM_P2
2024/01/23 05:37:26;;;;;;;9.60;6.20;;;;;;;-5.34;100.00;101520.58;112940;1237;22343;-47
2024/01/23 05:39:53;;;;;;;8.80;5.20;;;;;;;-5.32;100.00;101510.39;112926;1247;22375;-47
2024/01/23 05:42:20;;;;;;;9.00;5.80;;;;;;;-5.31;100.00;101494.27;112861;1245;22404;-47
2024/01/23 05:44:47;;;;;;;11.20;7.00;;;;;;;-5.30;100.00;101499.77;112884;1240;22997;-47
2024/01/23 05:47:14;;;;;;;11.70;6.10;;;;;;;-5.29;100.00;101501.60;112850;1249;22402;-47
2024/01/23 05:49:40;;;;;;;8.30;6.20;;;;;;;-5.26;100.00;101497.55;112976;1240;22394;-46
2024/01/23 05:52:08;;;;;;;9.90;5.70;;;;;;;-5.24;100.00;101495.04;112893;1249;22388;-53
2024/01/23 05:54:34;;;;;;;10.40;6.50;;;;;;;-5.23;100.00;101500.76;112968;1247;22236;-47
2024/01/23 05:57:01;;;;;;;10.00;6.90;;;;;;;-5.21;100.00;101503.98;112951;1238;22228;-54
2024/01/23 05:59:29;;;;;;;9.40;6.30;;;;;;;-5.21;100.00;101491.58;113018;1241;22366;-47
2024/01/23 06:01:57;;;;;;;12.60;6.70;;;;;;;-5.20;100.00;101498.59;112903;1249;22233;-46
2024/01/23 06:04:23;;;;;;;13.00;7.80;;;;;;;-5.18;100.00;101501.15;112864;1247;22383;-53
2024/01/23 06:06:50;;;;;;;12.00;7.20;;;;;;;-5.15;100.00;101490.64;112874;1237;22377;-48
2024/01/23 06:09:17;;;;;;;11.90;7.50;;;;;;;-5.11;100.00;101488.25;112850;1246;23616;-53
2024/01/23 06:11:44;;;;;;;12.90;7.30;;;;;;;-5.08;100.00;101493.10;112787;1237;22223;-53
2024/01/23 06:14:10;;;;;;;12.60;7.00;;;;;;;-5.05;100.00;101495.88;112805;1245;22396;-46
2024/01/23 06:16:40;;;;;;;8.70;6.20;;;;;;;-5.03;100.00;101493.66;112819;1246;22379;-53
2024/01/23 06:19:07;;;;;;;10.70;6.10;;;;;;;-5.02;100.00;101501.05;112689;1249;22389;-49
2024/01/23 06:21:37;;;;;;;10.30;6.80;;;;;;;-5.00;100.00;101494.38;112751;1244;22425;-46
2024/01/23 06:24:05;;;;;;;13.10;7.80;;;;;;;-4.98;100.00;101500.91;112702;1245;23015;-47
2024/01/23 06:26:32;;;;;;;11.40;7.50;;;;;;;-4.95;100.00;101503.16;112632;1249;23350;-47
2024/01/23 06:29:01;;;;;;;9.30;5.60;;;;;;;-4.93;100.00;101497.02;112634;1247;23045;-47
2024/01/23 06:31:35;;;;;;;9.20;5.80;;;;;;;-4.91;100.00;101492.12;112227;1249;23023;-53
2024/01/23 06:34:06;;;;;;;12.60;7.60;;;;;;;-4.88;100.00;101493.05;112325;1249;22486;-52
2024/01/23 06:36:32;;;;;;;11.00;6.70;;;;;;;-4.83;100.00;101496.84;112589;1246;22383;-53
2024/01/23 06:38:59;;;;;;;8.60;6.30;;;;;;;-4.79;100.00;101498.18;112703;1241;23248;-46
2024/01/23 06:41:32;;;;;;;11.30;6.90;;;;;;;-4.74;100.00;101500.79;112690;1240;22247;-47
2024/01/23 06:43:59;;;;;;;;;;;;;;;-4.68;100.00;101500.98;112656;1244;23683;-52
2024/01/23 06:46:26;;;;;;;14.20;6.50;;;;;;;-4.62;100.00;101507.93;112703;1246;22461;-54
2024/01/23 06:48:52;;;;;;;12.90;7.20;;;;;;;-4.59;100.00;101504.86;112464;1240;22291;-47
2024/01/23 06:51:21;;;;;;;13.20;7.30;;;;;;;-4.57;100.00;101496.71;112732;1247;22394;-48
2024/01/23 06:53:48;;;;;;;13.60;7.50;;;;;;;-4.53;100.00;101493.25;112743;1249;22488;-54
2024/01/23 06:56:15;;;;;;;13.00;7.80;;;;;;;-4.48;100.00;101500.13;112592;1240;23175;-47
2024/01/23 06:58:42;;;;;;;14.30;7.80;;;;;;;-4.43;100.00;101492.54;112723;1249;22986;-48
2024/01/23 07:01:09;;;;;;;10.40;6.20;;;;;;;-4.40;100.00;101493.84;112789;1249;22373;-52
2024/01/23 07:03:35;;;;;;;10.60;6.60;;;;;;;-4.38;100.00;101479.29;112747;1249;23131;-48
2024/01/23 07:06:03;;;;;;;12.80;7.50;;;;;;;-4.36;100.00;101479.92;112791;1246;23086;-54
2024/01/23 07:08:30;;;;;;;12.30;7.70;;;;;;;-4.33;100.00;101475.47;112857;1241;23309;-53
2024/01/23 07:11:01;;;;;;;12.10;7.90;;;;;;;-4.26;100.00;101480.54;112843;1237;22288;-47
2024/01/23 07:13:28;;;;;;;11.20;6.30;;;;;;;-4.19;100.00;101478.19;112881;1239;22850;-48
2024/01/23 07:15:56;;;;;;;11.70;7.30;;;;;;;-4.13;100.00;101466.73;112804;1248;22994;-49
2024/01/23 07:18:25;;;;;;;12.10;5.90;;;;;;;-4.09;100.00;101465.85;112351;1249;22379;-54
2024/01/23 07:20:53;;;;;;;13.50;7.20;;;;;;;-4.10;100.00;101459.30;112481;1249;23140;-53
2024/01/23 07:23:19;;;;;;;10.40;6.50;;;;;;;-4.09;100.00;101458.39;112315;1249;22250;-54
2024/01/23 07:25:46;;;;;;;12.20;6.20;;;;;;;-4.05;100.00;101454.46;112709;1247;22465;-53
2024/01/23 07:28:13;;;;;;;12.00;6.00;;;;;;;-4.00;100.00;101458.23;112619;1249;22371;-54
2024/01/23 07:30:55;;;;;;;10.60;5.80;;;;;;;-3.95;100.00;101463.52;112845;1241;22252;-48
2024/01/23 07:33:22;;;;;;;11.40;8.00;;;;;;;-3.92;100.00;101451.65;112792;1249;22956;-53
2024/01/23 07:35:51;;;;;;;10.40;6.30;;;;;;;-3.89;100.00;101446.94;112517;1247;298830;-47
2024/01/23 07:38:18;;;;;;;11.40;5.10;;;;;;;-3.86;100.00;101435.23;112805;1249;22626;-52
2024/01/23 07:40:45;;;;;;;9.20;5.30;;;;;;;-3.85;100.00;101440.61;112843;1245;22379;-47
2024/01/23 07:43:12;;;;;;;7.90;4.60;;;;;;;-3.82;100.00;101438.60;112783;1235;22196;-47
2024/01/23 07:45:39;;;;;;;11.10;5.70;;;;;;;-3.83;100.00;101438.67;112550;1249;22731;-50
2024/01/23 07:48:06;;;;;;;13.00;6.20;;;;;;;-3.85;100.00;101435.65;112748;1240;22956;-53
2024/01/23 07:50:33;;;;;;;13.80;5.90;;;;;;;-3.83;100.00;101445.38;112796;1245;22398;-53
2024/01/23 07:53:00;;;;;;;9.70;5.70;;;;;;;-3.75;100.00;101444.41;112818;1236;22952;-47
2024/01/23 07:55:27;;;;;;;13.80;7.80;;;;;;;-3.67;100.00;101455.27;112825;1241;22365;-48
2024/01/23 07:57:54;;;;;;;11.30;6.10;;;;;;;-3.62;100.00;101454.23;112907;1241;22325;-54
2024/01/23 08:00:21;;;;;;;12.80;6.40;;;;;;;-3.60;100.00;101447.71;112883;1247;22354;-54
2024/01/23 08:02:48;;;;;;;11.90;6.80;;;;;;;-3.57;100.00;101447.48;112833;1249;22389;-54
2024/01/23 08:05:15;;;;;;;10.70;5.40;;;;;;;-3.49;100.00;101453.86;112739;1245;22346;-58
2024/01/23 08:07:42;;;;;;;7.90;5.20;;;;;;;-3.43;100.00;101442.21;112911;1249;22801;-52
2024/01/23 08:10:09;;;;;;;11.60;5.80;;;;;;;-3.40;100.00;101450.30;112932;1249;22366;-54
2024/01/23 08:12:36;;;;;;;11.40;5.30;;;;;;;-3.36;100.00;101449.23;112838;1249;23088;-54
2024/01/23 08:15:06;;;;;;;9.60;4.70;;;;;;;-3.30;100.00;101445.40;112797;1249;22369;-47
2024/01/23 08:17:36;;;;;;;8.70;5.30;;;;;;;-3.27;100.00;101450.39;112789;1249;22409;-48
2024/01/23 08:20:04;;;;;;;9.20;5.70;;;;;;;-3.23;100.00;101439.79;112460;1241;23148;-48
2024/01/23 08:22:33;;;;;;;8.60;5.50;;;;;;;-3.17;100.00;101438.32;112574;1249;22395;-55
2024/01/23 08:25:03;;;;;;;9.80;5.00;;;;;;;-3.11;100.00;101445.58;112271;1249;22830;-55
2024/01/23 08:27:57;;;;;;;8.50;4.90;;;;;;;-3.06;100.00;101443.20;111991;1249;22310;-53
2024/01/23 08:30:24;;;;;;;11.80;5.30;;;;;;;-3.02;100.00;101447.83;112238;1249;22871;-48
2024/01/23 08:33:12;;;;;;;10.70;6.20;;;;;;;-2.93;100.00;101455.56;112657;1249;22353;-49
2024/01/23 08:35:44;;;;;;;9.50;5.30;;;;;;;-2.84;100.00;101447.88;112704;1240;22362;-47
2024/01/23 08:38:12;;;;;;;9.00;5.70;;;;;;;-2.70;100.00;101443.40;112419;1245;22946;-49
2024/01/23 08:40:39;;;;;;;9.60;4.50;;;;;;;-2.58;100.00;101445.26;112615;1249;22374;-52
2024/01/23 08:43:06;;;;;;;9.70;6.40;;;;;;;-2.53;100.00;101451.31;112520;1248;23023;-52
2024/01/23 08:45:35;;;;;;;12.50;6.30;;;;;;;-2.49;100.00;101450.92;112524;1249;22246;-59
2024/01/23 08:48:06;;;;;;;12.00;5.90;;;;;;;-2.42;100.00;101445.06;113045;1247;22191;31
2024/01/23 08:50:33;;;;;;;10.30;5.40;;;;;;;-2.36;100.00;101440.31;112779;1244;23609;-54
2024/01/23 08:53:00;;;;;;;7.90;5.50;;;;;;;-2.31;100.00;101431.79;112803;1249;23193;-57
2024/01/23 08:55:28;;;;;;;10.90;6.80;;;;;;;-2.26;100.00;101429.74;112796;1249;22380;-53
2024/01/23 08:57:57;;;;;;;13.10;6.60;;;;;;;-2.23;100.00;101436.84;112666;1249;22472;-56
2024/01/23 09:00:32;;;;;;;11.00;6.40;;;;;;;-2.21;100.00;101429.08;112416;1249;23246;-58
2024/01/23 09:02:59;;;;;;;9.80;6.10;;;;;;;-2.19;100.00;101429.74;112810;1246;23231;-57
2024/01/23 09:05:26;;;;;;;9.70;5.50;;;;;;;-2.19;100.00;101433.89;112715;1249;22756;-52
2024/01/23 09:07:56;;;;;;;14.20;6.30;;;;;;;-2.21;100.00;101426.04;112534;1240;22406;-54
2024/01/23 09:10:23;;;;;;;10.60;5.60;;;;;;;-2.18;100.00;101418.67;112520;1249;22381;-47
2024/01/23 09:12:50;;;;;;;11.50;6.10;;;;;;;-2.11;100.00;101412.00;112632;1249;22440;-49
2024/01/23 09:15:17;;;;;;;10.30;5.40;;;;;;;-2.03;100.00;101417.52;112655;1249;22377;-48
2024/01/23 09:17:44;;;;;;;8.80;5.80;;;;;;;-1.96;100.00;101414.91;112748;1248;22383;-48
2024/01/23 09:20:13;;;;;;;9.70;5.60;;;;;;;-1.91;100.00;101417.14;112638;1249;22753;-49
2024/01/23 09:22:44;;;;;;;10.60;5.80;;;;;;;-1.86;100.00;101419.33;112246;1249;22420;-54
2024/01/23 09:25:12;;;;;;;10.30;5.70;;;;;;;-1.88;100.00;101422.31;112811;1245;23088;-46
2024/01/23 09:27:39;;;;;;;12.90;5.50;;;;;;;-1.90;100.00;101430.56;112764;1249;23161;-47
2024/01/23 09:30:18;;;;;;;10.10;6.00;;;;;;;-1.91;100.00;101425.35;112709;1249;22268;-47
2024/01/23 09:32:46;;;;;;;8.50;5.40;;;;;;;-1.88;100.00;101418.70;112768;1249;23212;-48
2024/01/23 09:35:13;;;;;;;8.20;4.70;;;;;;;-1.84;100.00;101408.86;112654;1249;22265;-48
2024/01/23 09:37:40;;;;;;;11.30;5.60;;;;;;;-1.83;100.00;101404.45;112753;1249;22224;-47
2024/01/23 09:40:10;;;;;;;10.20;5.90;;;;;;;-1.85;100.00;101399.72;112774;1249;22414;-47
2024/01/23 09:42:39;;;;;;;13.60;6.20;;;;;;;-1.82;100.00;101403.51;112868;1249;23116;-47
2024/01/23 09:45:18;;;;;;;9.40;5.10;;;;;;;-1.76;100.00;101402.40;112853;1249;22385;-46
2024/01/23 09:47:52;;;;;;;12.00;5.70;;;;;;;-1.70;100.00;101389.96;112881;1249;22260;-47
2024/01/23 09:50:20;;;;;;;9.60;6.10;;;;;;;-1.66;100.00;101391.77;112893;1249;22364;-56
2024/01/23 09:52:48;;;;;;;9.10;5.00;;;;;;;-1.59;100.00;101397.02;112759;1249;22370;-55
2024/01/23 09:55:16;;;;;;;8.50;4.80;;;;;;;-1.55;100.00;101402.58;112904;1249;22418;-55
2024/01/23 09:57:43;;;;;;;8.50;5.20;;;;;;;-1.60;100.00;101395.38;112915;1249;22383;-56
2024/01/23 10:00:14;;;;;;;8.10;4.90;;;;;;;-1.68;100.00;101396.92;112816;1249;23175;-55
2024/01/23 10:02:42;;;;;;;9.50;5.30;;;;;;;-1.74;100.00;101399.75;112726;1247;22539;-56
2024/01/23 10:05:15;;;;;;;8.60;5.80;;;;;;;-1.79;100.00;101391.59;112836;1249;23080;-47
2024/01/23 10:07:43;;;;;;;8.50;5.40;;;;;;;-1.79;100.00;101386.83;112657;1249;23213;-48
2024/01/23 10:10:14;;;;;;;8.40;5.40;;;;;;;-1.74;100.00;101391.56;112827;1249;22414;-47
2024/01/23 10:12:45;;;;;;;11.70;4.50;;;;;;;-1.69;100.00;101401.50;112806;1241;22460;-55
2024/01/23 10:15:16;;;;;;;10.20;5.80;;;;;;;-1.67;100.00;101405.59;112787;1247;22300;-55
2024/01/23 10:17:46;;;;;;;8.80;5.40;;;;;;;-1.68;100.00;101399.52;112752;1249;22334;-56
2024/01/23 10:20:20;;;;;;;8.80;5.20;;;;;;;-1.69;100.00;101394.83;112617;1249;22338;-48
2024/01/23 10:22:48;;;;;;;7.90;5.50;;;;;;;-1.69;100.00;101391.92;112679;1249;22490;-55
2024/01/23 10:25:33;;;;;;;8.60;5.10;;;;;;;-1.67;100.00;101392.95;112682;1249;22866;-55
2024/01/23 10:28:03;;;;;;;9.30;5.10;;;;;;;-1.60;100.00;101379.86;112537;1249;23387;-47
2024/01/23 10:30:39;;;;;;;8.80;5.30;;;;;;;-1.54;100.00;101375.27;112487;1249;22900;-47
2024/01/23 10:33:19;;;;;;;10.00;6.00;;;;;;;-1.50;100.00;101359.30;112689;1249;23326;-48
2024/01/23 10:35:53;;;;;;;10.30;5.20;;;;;;;-1.45;100.00;101348.17;112558;1244;22285;-47
2024/01/23 10:38:26;;;;;;;9.20;5.50;;;;;;;-1.39;100.00;101349.36;112597;1249;22725;-50
2024/01/23 10:40:59;;;;;;;12.50;7.20;;;;;;;-1.35;100.00;101345.02;112700;1249;22559;-55
2024/01/23 10:43:26;;;;;;;9.50;6.50;;;;;;;-1.27;100.00;101343.30;112846;1249;22670;-57
2024/01/23 10:45:54;;;;;;;12.10;7.10;;;;;;;-1.18;100.00;101345.05;112797;1249;22700;-57
2024/01/23 10:48:21;;;;;;;11.30;6.90;;;;;;;-1.11;100.00;101345.88;112926;1249;23141;-48
2024/01/23 10:50:50;;;;;;;10.10;6.90;;;;;;;-1.07;100.00;101346.29;112924;1247;22344;-61
2024/01/23 10:53:22;;;;;;;14.40;5.30;;;;;;;-1.03;100.00;101331.52;112592;1249;22402;-51
2024/01/23 10:55:50;;;;;;;11.40;6.20;;;;;;;-1.03;100.00;101333.36;112662;1249;22791;-57
2024/01/23 10:58:31;;;;;;;11.50;6.50;;;;;;;-1.05;100.00;101332.02;112751;1249;22394;-49
2024/01/23 11:00:59;;;;;;;8.40;5.60;;;;;;;-1.05;100.00;101320.04;112903;1249;23547;-48
2024/01/23 11:03:28;;;;;;;11.30;5.60;;;;;;;-1.00;100.00;101313.52;112901;1249;22260;-56
2024/01/23 11:05:57;;;;;;;12.20;5.90;;;;;;;-0.95;100.00;101313.81;112914;1247;23651;-57
2024/01/23 11:08:38;;;;;;;9.00;5.60;;;;;;;-0.88;100.00;101307.10;112641;1249;22272;-50
2024/01/23 11:11:08;;;;;;;10.20;6.00;;;;;;;-0.82;100.00;101307.45;112498;1249;22353;-57
2024/01/23 11:13:41;;;;;;;13.00;7.00;;;;;;;-0.76;100.00;101305.56;112756;1249;22844;-48
2024/01/23 11:16:09;;;;;;;10.90;6.10;;;;;;;-0.67;100.00;101300.12;112469;1249;22463;-49
2024/01/23 11:18:36;;;;;;;11.60;6.60;;;;;;;-0.57;100.00;101291.63;112669;1249;22732;-51
2024/01/23 11:21:05;;;;;;;9.80;5.60;;;;;;;-0.46;100.00;101283.23;112743;1241;22360;-52
2024/01/23 11:23:58;;;;;;;12.60;5.80;;;;;;;-0.29;100.00;101274.46;112495;1249;22423;-53
2024/01/23 11:31:21;;;;;;;15.00;6.40;;;;;;;-0.14;100.00;101273.62;112814;1249;22380;-46
2024/01/23 11:39:02;;;;;;;8.80;6.20;;;;;;;-0.21;100.00;101281.46;112785;1249;22666;-52
2024/01/23 11:58:11;;;;;;;10.30;6.40;;;;;;;1.77;92.90;101249.84;112830;1249;22431;-46
2024/01/23 12:01:20;;;;;;;10.00;5.70;;;;;;;1.47;92.29;101241.45;112955;1249;22345;-46
2024/01/23 12:11:57;;;;;;;9.90;5.60;;;;;;;1.36;93.23;101253.42;112756;1249;22359;-47
2024/01/23 12:14:48;;;;;;;9.00;5.60;;;;;;;1.27;93.15;101249.73;112723;1249;22402;-53
2024/01/23 12:17:24;;;;;;;10.10;5.60;;;;;;;1.32;93.30;101250.66;112805;1249;22917;-54
2024/01/23 12:19:56;;;;;;;9.60;5.00;;;;;;;1.41;93.06;101251.66;112496;1249;22188;-46
2024/01/23 12:22:23;;;;;;;10.20;5.90;;;;;;;1.48;92.46;101241.71;112900;1249;22466;-54
2024/01/23 12:24:51;;;;;;;10.40;6.10;;;;;;;1.43;92.00;101242.45;112791;1249;22449;-51
2024/01/23 12:27:19;;;;;;;7.30;5.50;;;;;;;1.44;92.45;101245.63;112852;1249;22868;-51
2024/01/23 12:29:56;;;;;;;6.40;4.80;;;;;;;1.70;92.31;101239.70;112867;1249;22957;-46
2024/01/23 12:32:27;;;;;;;13.90;5.70;;;;;;;1.80;90.94;101238.15;112853;1249;22517;-45
2024/01/23 12:34:55;;;;;;;7.50;5.30;;;;;;;1.62;90.52;101233.10;112908;1249;22387;-46
2024/01/23 12:37:28;;;;;;;7.40;4.90;;;;;;;1.65;91.71;101248.58;112893;1249;23195;-46
2024/01/23 12:39:55;;;;;;;8.10;5.50;;;;;;;1.94;90.88;101245.19;112926;1249;22368;-46
2024/01/23 12:42:22;;;;;;;10.90;5.10;;;;;;;1.99;89.98;101244.61;112928;1249;22374;-47
2024/01/23 12:44:49;;;;;;;11.90;5.70;;;;;;;1.79;89.74;101253.08;112918;1249;23186;-52
2024/01/23 12:47:16;;;;;;;7.70;5.00;;;;;;;1.56;90.54;101254.13;112902;1249;22941;-52
2024/01/23 12:49:46;;;;;;;8.30;5.60;;;;;;;1.29;91.29;101251.52;112935;1249;23022;-52
2024/01/23 12:52:17;;;;;;;12.30;5.60;;;;;;;0.94;92.68;101248.61;112939;1249;22213;-46
2024/01/23 12:54:44;;;;;;;12.70;5.10;;;;;;;0.62;94.09;101256.15;112842;1249;22138;-46
2024/01/23 12:57:14;;;;;;;9.30;5.50;;;;;;;0.39;95.82;101255.90;112807;1249;22374;-47
2024/01/23 12:59:41;;;;;;;10.10;5.80;;;;;;;0.15;96.96;101247.00;112788;1249;22426;-46
2024/01/23 13:02:10;;;;;;;12.70;5.50;;;;;;;-0.04;98.51;101249.67;112792;1249;23230;-46
2024/01/23 13:04:37;;;;;;;8.70;4.90;;;;;;;-0.14;99.43;101241.39;112824;1249;22355;-46
2024/01/23 13:07:04;;;;;;;11.50;5.50;;;;;;;-0.22;100.00;101241.11;112821;1249;23343;-46
2024/01/23 13:09:31;;;;;;;15.80;6.20;;;;;;;-0.27;100.00;101235.14;112620;1249;23222;-47
2024/01/23 13:11:59;;;;;;;11.40;5.70;;;;;;;-0.29;100.00;101240.69;112880;1249;22370;-51
2024/01/23 13:14:28;;;;;;;10.10;5.80;;;;;;;-0.32;100.00;101234.86;112803;1249;22873;-53
2024/01/23 13:16:55;;;;;;;8.90;5.80;;;;;;;-0.37;100.00;101235.77;112900;1249;22419;-52
2024/01/23 13:19:22;;;;;;;8.80;5.90;;;;;;;-0.44;100.00;101236.06;112848;1249;22374;-52
2024/01/23 13:21:50;;;;;;;12.10;6.30;;;;;;;-0.49;100.00;101239.83;112902;1249;23144;-52
2024/01/23 13:24:18;;;;;;;9.90;5.30;;;;;;;-0.53;100.00;101242.90;112905;1249;22429;-51
2024/01/23 13:26:45;;;;;;;8.90;5.30;;;;;;;-0.55;100.00;101235.77;112988;1249;22345;-53
2024/01/23 13:29:12;;;;;;;9.80;5.40;;;;;;;-0.57;100.00;101236.52;112913;1249;22430;-53
2024/01/23 13:31:45;;;;;;;14.50;5.80;;;;;;;-0.60;100.00;101243.64;112930;1249;22398;-52
2024/01/23 13:34:12;;;;;;;8.30;5.40;;;;;;;-0.63;100.00;101237.16;112999;1249;22354;-51
2024/01/23 13:36:39;;;;;;;11.20;6.00;;;;;;;-0.65;100.00;101235.96;112909;1249;22410;-52
2024/01/23 13:39:13;;;;;;;9.80;6.10;;;;;;;-0.69;100.00;101236.59;112910;1249;22425;-51
2024/01/23 13:41:44;;;;;;;14.30;6.60;;;;;;;-0.71;100.00;101239.05;112834;1249;23103;-52
2024/01/23 13:44:17;;;;;;;10.00;6.10;;;;;;;-0.72;100.00;101238.45;112539;1249;22408;-51
2024/01/23 13:46:44;;;;;;;7.60;4.70;;;;;;;-0.77;100.00;101232.52;112898;1249;23149;-52
2024/01/23 13:49:10;;;;;;;8.70;5.50;;;;;;;-0.80;100.00;101233.05;112870;1249;23307;-52
2024/01/23 13:51:40;;;;;;;12.30;5.10;;;;;;;-0.82;100.00;101238.03;112620;1249;22386;-52
2024/01/23 13:54:08;;;;;;;10.50;5.60;;;;;;;-0.88;100.00;101242.15;112736;1249;22921;-53
2024/01/23 13:56:35;;;;;;;9.20;5.60;;;;;;;-0.94;100.00;101243.17;112906;1249;22373;-52
2024/01/23 13:59:06;;;;;;;11.60;5.90;;;;;;;-0.95;100.00;101244.44;112864;1249;23121;-53
2024/01/23 14:01:33;;;;;;;9.10;5.80;;;;;;;-0.96;100.00;101237.70;112811;1249;22669;-52
2024/01/23 14:04:00;;;;;;;13.10;6.20;;;;;;;-0.97;100.00;101235.07;112825;1249;23051;-51
2024/01/23 14:06:27;;;;;;;14.90;6.90;;;;;;;-0.99;100.00;101243.67;112907;1249;22355;-52
2024/01/23 14:08:55;;;;;;;9.80;4.70;;;;;;;-1.01;100.00;101244.60;112902;1249;23173;-52
2024/01/23 14:11:22;;;;;;;9.10;5.70;;;;;;;-1.00;100.00;101238.98;112939;1249;22874;-51
2024/01/23 14:13:49;;;;;;;10.20;5.30;;;;;;;-1.00;100.00;101229.23;112977;1249;23207;-51
2024/01/23 14:16:16;;;;;;;11.10;5.30;;;;;;;-1.01;100.00;101225.58;112986;1249;22336;-52
2024/01/23 14:18:43;;;;;;;8.10;4.70;;;;;;;-1.03;100.00;101237.95;113031;1249;22259;-53
2024/01/23 14:21:11;;;;;;;9.20;4.90;;;;;;;-1.05;100.00;101245.02;113021;1249;22381;-52
2024/01/23 14:23:41;;;;;;;9.00;4.90;;;;;;;-1.08;100.00;101246.23;112981;1249;22249;-51
2024/01/23 14:26:08;;;;;;;8.90;5.50;;;;;;;-1.12;100.00;101244.59;112996;1249;22467;-51
2024/01/23 14:28:35;;;;;;;7.80;4.90;;;;;;;-1.15;100.00;101244.58;112994;1249;22739;-51
2024/01/23 14:31:02;;;;;;;10.00;4.90;;;;;;;-1.18;100.00;101237.20;112784;1249;22528;-52
2024/01/23 14:33:31;;;;;;;10.50;5.70;;;;;;;-1.19;100.00;101237.84;113016;1249;22402;-52
2024/01/23 14:35:59;;;;;;;10.60;6.00;;;;;;;-1.20;100.00;101245.67;112976;1249;22460;-51
2024/01/23 14:38:26;;;;;;;15.10;7.10;;;;;;;-1.21;100.00;101244.89;113046;1249;22407;-45
2024/01/23 14:40:53;;;;;;;6.80;4.30;;;;;;;-1.23;100.00;101251.77;113033;1249;22374;-51
2024/01/23 14:43:21;;;;;;;9.00;5.40;;;;;;;-1.25;100.00;101243.80;113070;1249;22378;-51
2024/01/23 14:45:48;;;;;;;10.90;5.50;;;;;;;-1.28;100.00;101252.86;113035;1249;22371;-45
2024/01/23 14:48:16;;;;;;;10.10;5.70;;;;;;;-1.30;100.00;101266.90;113063;1249;22386;-52
2024/01/23 14:50:44;;;;;;;11.20;5.10;;;;;;;-1.32;100.00;101262.55;112965;1249;22436;-51
2024/01/23 14:53:11;;;;;;;12.10;5.30;;;;;;;-1.33;100.00;101258.02;113018;1249;22403;-47
2024/01/23 14:55:38;;;;;;;7.80;4.70;;;;;;;-1.33;100.00;101260.05;112932;1249;22435;-46
2024/01/23 14:58:05;;;;;;;10.90;5.60;;;;;;;-1.33;100.00;101262.12;113067;1249;22437;-45
2024/01/23 15:00:32;;;;;;;10.40;4.70;;;;;;;-1.32;100.00;101261.16;113062;1249;22331;-50
2024/01/23 15:02:59;;;;;;;9.80;5.30;;;;;;;-1.31;100.00;101266.00;113030;1249;22432;-50
2024/01/23 15:05:27;;;;;;;8.80;5.40;;;;;;;-1.31;100.00;101266.89;112804;1249;22265;-52
2024/01/23 15:07:54;;;;;;;8.50;5.30;;;;;;;-1.30;100.00;101271.88;113026;1249;23197;-52
2024/01/23 15:10:21;;;;;;;10.60;4.80;;;;;;;-1.30;100.00;101270.02;112992;1249;22370;-47
2024/01/23 15:12:48;;;;;;;8.80;5.50;;;;;;;-1.30;100.00;101267.45;113000;1249;23110;-53
2024/01/23 15:15:15;;;;;;;9.70;5.00;;;;;;;-1.28;100.00;101265.48;113050;1249;22357;-46
2024/01/23 15:17:44;;;;;;;10.10;5.20;;;;;;;-1.29;100.00;101267.84;113049;1249;22450;-52
2024/01/23 15:20:13;;;;;;;8.20;5.40;;;;;;;-1.30;100.00;101267.10;113046;1249;23095;-52
2024/01/23 15:22:40;;;;;;;10.20;5.10;;;;;;;-1.31;100.00;101272.86;113055;1249;22414;-46
